sensor_id;sensor_type;location;lat;lon;timestamp;P1;durP1;ratioP1;P2;durP2;ratioP2
72275;SDS011;61204;49.980;8.358;2024-02-21T00:01:13;7.93;;;3.83;;
72275;SDS011;61204;49.980;8.358;2024-02-21T00:03:45;11.30;;;4.20;;
72275;SDS011;61204;49.980;8.358;2024-02-21T00:06:10;11.15;;;3.58;;
72275;SDS011;61204;49.980;8.358;2024-02-21T00:08:38;7.53;;;4.20;;
72275;SDS011;61204;49.980;8.358;2024-02-21T00:11:04;10.20;;;4.20;;
72275;SDS011;61204;49.980;8.358;2024-02-21T00:13:32;10.30;;;5.57;;
72275;SDS011;61204;49.980;8.358;2024-02-21T00:16:00;10.90;;;4.15;;
72275;SDS011;61204;49.980;8.358;2024-02-21T00:18:26;12.88;;;5.07;;
72275;SDS011;61204;49.980;8.358;2024-02-21T00:20:52;9.93;;;3.60;;
72275;SDS011;61204;49.980;8.358;2024-02-21T00:23:17;12.00;;;4.18;;
72275;SDS011;61204;49.980;8.358;2024-02-21T00:25:43;13.05;;;4.50;;
72275;SDS011;61204;49.980;8.358;2024-02-21T00:28:11;17.38;;;5.22;;
72275;SDS011;61204;49.980;8.358;2024-02-21T00:30:39;9.07;;;4.53;;
72275;SDS011;61204;49.980;8.358;2024-02-21T00:33:08;15.95;;;5.50;;
72275;SDS011;61204;49.980;8.358;2024-02-21T00:35:33;13.30;;;4.07;;
72275;SDS011;61204;49.980;8.358;2024-02-21T00:37:59;12.75;;;5.75;;
72275;SDS011;61204;49.980;8.358;2024-02-21T00:40:24;12.70;;;4.40;;
72275;SDS011;61204;49.980;8.358;2024-02-21T00:42:50;13.07;;;5.32;;
72275;SDS011;61204;49.980;8.358;2024-02-21T00:45:15;16.05;;;4.72;;
72275;SDS011;61204;49.980;8.358;2024-02-21T00:47:41;12.50;;;4.65;;
72275;SDS011;61204;49.980;8.358;2024-02-21T00:50:06;16.30;;;4.53;;
72275;SDS011;61204;49.980;8.358;2024-02-21T00:52:34;14.00;;;5.40;;
72275;SDS011;61204;49.980;8.358;2024-02-21T00:55:00;11.23;;;4.80;;
72275;SDS011;61204;49.980;8.358;2024-02-21T00:57:25;10.70;;;4.68;;
72275;SDS011;61204;49.980;8.358;2024-02-21T00:59:51;12.77;;;4.72;;
72275;SDS011;61204;49.980;8.358;2024-02-21T01:02:17;9.52;;;4.53;;
72275;SDS011;61204;49.980;8.358;2024-02-21T01:04:42;9.32;;;4.47;;
72275;SDS011;61204;49.980;8.358;2024-02-21T01:07:10;8.27;;;3.92;;
72275;SDS011;61204;49.980;8.358;2024-02-21T01:09:36;9.68;;;4.38;;
72275;SDS011;61204;49.980;8.358;2024-02-21T01:12:01;10.77;;;4.38;;
72275;SDS011;61204;49.980;8.358;2024-02-21T01:14:27;12.60;;;5.40;;
72275;SDS011;61204;49.980;8.358;2024-02-21T01:16:55;11.45;;;5.13;;
72275;SDS011;61204;49.980;8.358;2024-02-21T01:19:20;13.00;;;4.55;;
72275;SDS011;61204;49.980;8.358;2024-02-21T01:21:46;15.32;;;4.70;;
72275;SDS011;61204;49.980;8.358;2024-02-21T01:24:11;13.50;;;4.88;;
72275;SDS011;61204;49.980;8.358;2024-02-21T01:26:40;16.08;;;5.25;;
72275;SDS011;61204;49.980;8.358;2024-02-21T01:29:06;13.88;;;4.32;;
72275;SDS011;61204;49.980;8.358;2024-02-21T01:31:31;14.02;;;4.78;;
72275;SDS011;61204;49.980;8.358;2024-02-21T01:33:57;13.50;;;4.78;;
72275;SDS011;61204;49.980;8.358;2024-02-21T01:36:23;10.95;;;4.00;;
72275;SDS011;61204;49.980;8.358;2024-02-21T01:38:48;15.75;;;4.57;;
72275;SDS011;61204;49.980;8.358;2024-02-21T01:41:14;10.38;;;4.93;;
72275;SDS011;61204;49.980;8.358;2024-02-21T01:43:41;15.20;;;4.78;;
72275;SDS011;61204;49.980;8.358;2024-02-21T01:46:09;14.30;;;5.00;;
72275;SDS011;61204;49.980;8.358;2024-02-21T01:48:35;15.30;;;5.00;;
72275;SDS011;61204;49.980;8.358;2024-02-21T01:51:00;9.38;;;4.43;;
72275;SDS011;61204;49.980;8.358;2024-02-21T01:53:30;7.80;;;3.67;;
72275;SDS011;61204;49.980;8.358;2024-02-21T01:56:03;9.05;;;4.20;;
72275;SDS011;61204;49.980;8.358;2024-02-21T01:58:31;9.88;;;5.25;;
72275;SDS011;61204;49.980;8.358;2024-02-21T02:01:02;10.68;;;4.25;;
72275;SDS011;61204;49.980;8.358;2024-02-21T02:03:28;8.48;;;3.72;;
72275;SDS011;61204;49.980;8.358;2024-02-21T02:05:55;12.82;;;5.00;;
72275;SDS011;61204;49.980;8.358;2024-02-21T02:08:21;13.05;;;4.20;;
72275;SDS011;61204;49.980;8.358;2024-02-21T02:10:47;10.52;;;4.28;;
72275;SDS011;61204;49.980;8.358;2024-02-21T02:13:14;8.90;;;4.25;;
72275;SDS011;61204;49.980;8.358;2024-02-21T02:15:43;9.43;;;4.10;;
72275;SDS011;61204;49.980;8.358;2024-02-21T02:18:12;10.05;;;3.65;;
72275;SDS011;61204;49.980;8.358;2024-02-21T02:20:41;9.40;;;3.42;;
72275;SDS011;61204;49.980;8.358;2024-02-21T02:23:12;11.88;;;3.88;;
72275;SDS011;61204;49.980;8.358;2024-02-21T02:25:58;7.45;;;3.95;;
72275;SDS011;61204;49.980;8.358;2024-02-21T02:28:26;11.55;;;4.13;;
72275;SDS011;61204;49.980;8.358;2024-02-21T02:30:52;10.65;;;3.58;;
72275;SDS011;61204;49.980;8.358;2024-02-21T02:33:18;9.25;;;3.80;;
72275;SDS011;61204;49.980;8.358;2024-02-21T02:35:44;10.70;;;4.82;;
72275;SDS011;61204;49.980;8.358;2024-02-21T02:38:10;13.27;;;4.18;;
72275;SDS011;61204;49.980;8.358;2024-02-21T02:40:40;10.73;;;3.97;;
72275;SDS011;61204;49.980;8.358;2024-02-21T02:43:06;9.73;;;3.55;;
72275;SDS011;61204;49.980;8.358;2024-02-21T02:45:32;11.15;;;3.80;;
72275;SDS011;61204;49.980;8.358;2024-02-21T02:47:58;12.40;;;4.32;;
72275;SDS011;61204;49.980;8.358;2024-02-21T02:50:25;10.85;;;4.30;;
72275;SDS011;61204;49.980;8.358;2024-02-21T02:52:53;8.88;;;4.05;;
72275;SDS011;61204;49.980;8.358;2024-02-21T02:55:20;10.32;;;3.47;;
72275;SDS011;61204;49.980;8.358;2024-02-21T02:57:48;11.43;;;4.13;;
72275;SDS011;61204;49.980;8.358;2024-02-21T03:00:14;12.32;;;4.22;;
72275;SDS011;61204;49.980;8.358;2024-02-21T03:02:41;12.77;;;5.30;;
72275;SDS011;61204;49.980;8.358;2024-02-21T03:05:11;15.55;;;5.28;;
72275;SDS011;61204;49.980;8.358;2024-02-21T03:07:43;12.00;;;5.10;;
72275;SDS011;61204;49.980;8.358;2024-02-21T03:10:10;12.65;;;4.82;;
72275;SDS011;61204;49.980;8.358;2024-02-21T03:12:37;16.10;;;5.55;;
72275;SDS011;61204;49.980;8.358;2024-02-21T03:15:03;13.20;;;6.00;;
72275;SDS011;61204;49.980;8.358;2024-02-21T03:17:31;16.38;;;5.53;;
72275;SDS011;61204;49.980;8.358;2024-02-21T03:19:59;12.68;;;5.88;;
72275;SDS011;61204;49.980;8.358;2024-02-21T03:22:25;17.33;;;6.18;;
72275;SDS011;61204;49.980;8.358;2024-02-21T03:24:51;13.52;;;6.57;;
72275;SDS011;61204;49.980;8.358;2024-02-21T03:27:16;17.02;;;6.40;;
72275;SDS011;61204;49.980;8.358;2024-02-21T03:29:42;15.45;;;6.53;;
72275;SDS011;61204;49.980;8.358;2024-02-21T03:32:08;24.42;;;7.30;;
72275;SDS011;61204;49.980;8.358;2024-02-21T03:34:34;17.00;;;7.15;;
72275;SDS011;61204;49.980;8.358;2024-02-21T03:37:00;15.32;;;6.80;;
72275;SDS011;61204;49.980;8.358;2024-02-21T03:39:26;12.27;;;6.32;;
72275;SDS011;61204;49.980;8.358;2024-02-21T03:41:52;14.18;;;7.03;;
72275;SDS011;61204;49.980;8.358;2024-02-21T03:44:17;12.93;;;6.78;;
72275;SDS011;61204;49.980;8.358;2024-02-21T03:46:43;10.18;;;6.30;;
72275;SDS011;61204;49.980;8.358;2024-02-21T03:49:08;12.88;;;5.88;;
72275;SDS011;61204;49.980;8.358;2024-02-21T03:51:34;13.43;;;6.53;;
72275;SDS011;61204;49.980;8.358;2024-02-21T03:54:00;20.30;;;6.70;;
72275;SDS011;61204;49.980;8.358;2024-02-21T03:56:25;17.88;;;6.22;;
72275;SDS011;61204;49.980;8.358;2024-02-21T03:58:51;13.15;;;5.68;;
72275;SDS011;61204;49.980;8.358;2024-02-21T04:01:17;16.83;;;6.53;;
72275;SDS011;61204;49.980;8.358;2024-02-21T04:03:45;11.15;;;6.07;;
72275;SDS011;61204;49.980;8.358;2024-02-21T04:06:11;12.15;;;5.40;;
72275;SDS011;61204;49.980;8.358;2024-02-21T04:08:37;10.70;;;5.10;;
72275;SDS011;61204;49.980;8.358;2024-02-21T04:11:04;13.63;;;4.72;;
72275;SDS011;61204;49.980;8.358;2024-02-21T04:13:31;13.23;;;5.50;;
72275;SDS011;61204;49.980;8.358;2024-02-21T04:15:57;14.73;;;5.85;;
72275;SDS011;61204;49.980;8.358;2024-02-21T04:18:22;17.23;;;6.00;;
72275;SDS011;61204;49.980;8.358;2024-02-21T04:20:48;11.35;;;4.70;;
72275;SDS011;61204;49.980;8.358;2024-02-21T04:23:13;14.45;;;5.55;;
72275;SDS011;61204;49.980;8.358;2024-02-21T04:25:39;14.85;;;5.50;;
72275;SDS011;61204;49.980;8.358;2024-02-21T04:28:04;14.55;;;5.78;;
72275;SDS011;61204;49.980;8.358;2024-02-21T04:30:30;14.27;;;6.03;;
72275;SDS011;61204;49.980;8.358;2024-02-21T04:32:56;15.38;;;6.18;;
72275;SDS011;61204;49.980;8.358;2024-02-21T04:35:21;13.80;;;6.40;;
72275;SDS011;61204;49.980;8.358;2024-02-21T04:37:47;11.80;;;4.93;;
72275;SDS011;61204;49.980;8.358;2024-02-21T04:40:12;16.30;;;5.78;;
72275;SDS011;61204;49.980;8.358;2024-02-21T04:42:39;9.07;;;4.15;;
72275;SDS011;61204;49.980;8.358;2024-02-21T04:45:05;9.57;;;4.35;;
72275;SDS011;61204;49.980;8.358;2024-02-21T04:47:31;15.88;;;5.00;;
72275;SDS011;61204;49.980;8.358;2024-02-21T04:49:59;12.30;;;4.60;;
72275;SDS011;61204;49.980;8.358;2024-02-21T04:52:28;10.55;;;4.22;;
72275;SDS011;61204;49.980;8.358;2024-02-21T04:54:54;8.13;;;4.32;;
72275;SDS011;61204;49.980;8.358;2024-02-21T04:57:20;9.60;;;4.90;;
72275;SDS011;61204;49.980;8.358;2024-02-21T04:59:46;9.93;;;4.80;;
72275;SDS011;61204;49.980;8.358;2024-02-21T05:02:12;14.13;;;5.05;;
72275;SDS011;61204;49.980;8.358;2024-02-21T05:04:39;15.20;;;5.70;;
72275;SDS011;61204;49.980;8.358;2024-02-21T05:07:06;11.68;;;4.65;;
72275;SDS011;61204;49.980;8.358;2024-02-21T05:09:32;8.80;;;5.35;;
72275;SDS011;61204;49.980;8.358;2024-02-21T05:11:58;9.05;;;4.38;;
72275;SDS011;61204;49.980;8.358;2024-02-21T05:14:24;9.02;;;4.90;;
72275;SDS011;61204;49.980;8.358;2024-02-21T05:16:51;11.15;;;5.22;;
72275;SDS011;61204;49.980;8.358;2024-02-21T05:19:18;14.55;;;5.28;;
72275;SDS011;61204;49.980;8.358;2024-02-21T05:21:43;9.75;;;5.15;;
72275;SDS011;61204;49.980;8.358;2024-02-21T05:24:10;13.85;;;5.05;;
72275;SDS011;61204;49.980;8.358;2024-02-21T05:26:40;13.25;;;5.72;;
72275;SDS011;61204;49.980;8.358;2024-02-21T05:29:06;12.77;;;6.53;;
72275;SDS011;61204;49.980;8.358;2024-02-21T05:34:15;10.07;;;5.90;;
72275;SDS011;61204;49.980;8.358;2024-02-21T05:36:42;12.50;;;6.07;;
72275;SDS011;61204;49.980;8.358;2024-02-21T05:39:07;11.15;;;6.30;;
72275;SDS011;61204;49.980;8.358;2024-02-21T05:41:33;11.48;;;5.40;;
72275;SDS011;61204;49.980;8.358;2024-02-21T05:43:58;9.95;;;6.00;;
72275;SDS011;61204;49.980;8.358;2024-02-21T05:46:24;12.10;;;5.68;;
72275;SDS011;61204;49.980;8.358;2024-02-21T05:48:49;10.57;;;5.55;;
72275;SDS011;61204;49.980;8.358;2024-02-21T05:51:15;14.38;;;5.82;;
72275;SDS011;61204;49.980;8.358;2024-02-21T05:53:41;11.45;;;6.03;;
72275;SDS011;61204;49.980;8.358;2024-02-21T05:56:10;13.68;;;5.97;;
72275;SDS011;61204;49.980;8.358;2024-02-21T05:58:39;16.48;;;6.65;;
72275;SDS011;61204;49.980;8.358;2024-02-21T06:01:05;11.73;;;5.70;;
72275;SDS011;61204;49.980;8.358;2024-02-21T06:03:34;11.95;;;5.18;;
72275;SDS011;61204;49.980;8.358;2024-02-21T06:06:01;13.70;;;5.63;;
72275;SDS011;61204;49.980;8.358;2024-02-21T06:08:28;8.50;;;5.53;;
72275;SDS011;61204;49.980;8.358;2024-02-21T06:10:53;12.98;;;5.43;;
72275;SDS011;61204;49.980;8.358;2024-02-21T06:13:28;7.93;;;4.82;;
72275;SDS011;61204;49.980;8.358;2024-02-21T06:15:54;13.85;;;5.90;;
72275;SDS011;61204;49.980;8.358;2024-02-21T06:18:19;14.50;;;6.18;;
72275;SDS011;61204;49.980;8.358;2024-02-21T06:20:46;9.57;;;5.78;;
72275;SDS011;61204;49.980;8.358;2024-02-21T06:23:12;17.27;;;6.70;;
72275;SDS011;61204;49.980;8.358;2024-02-21T06:25:41;13.48;;;6.40;;
72275;SDS011;61204;49.980;8.358;2024-02-21T06:28:07;14.65;;;7.60;;
72275;SDS011;61204;49.980;8.358;2024-02-21T06:30:33;13.73;;;6.60;;
72275;SDS011;61204;49.980;8.358;2024-02-21T06:32:58;13.32;;;7.03;;
72275;SDS011;61204;49.980;8.358;2024-02-21T06:35:29;15.55;;;6.38;;
72275;SDS011;61204;49.980;8.358;2024-02-21T06:37:54;12.60;;;5.85;;
72275;SDS011;61204;49.980;8.358;2024-02-21T06:40:21;15.00;;;6.80;;
72275;SDS011;61204;49.980;8.358;2024-02-21T06:42:48;12.75;;;6.93;;
72275;SDS011;61204;49.980;8.358;2024-02-21T06:45:15;10.98;;;6.47;;
72275;SDS011;61204;49.980;8.358;2024-02-21T06:47:41;12.27;;;6.47;;
72275;SDS011;61204;49.980;8.358;2024-02-21T06:50:09;12.18;;;6.82;;
72275;SDS011;61204;49.980;8.358;2024-02-21T06:52:35;13.45;;;7.00;;
72275;SDS011;61204;49.980;8.358;2024-02-21T06:55:04;14.95;;;8.10;;
72275;SDS011;61204;49.980;8.358;2024-02-21T06:57:30;13.95;;;5.97;;
72275;SDS011;61204;49.980;8.358;2024-02-21T06:59:55;14.43;;;7.18;;
72275;SDS011;61204;49.980;8.358;2024-02-21T07:02:23;14.60;;;7.05;;
72275;SDS011;61204;49.980;8.358;2024-02-21T07:04:49;18.35;;;7.22;;
72275;SDS011;61204;49.980;8.358;2024-02-21T07:07:15;11.95;;;6.95;;
72275;SDS011;61204;49.980;8.358;2024-02-21T07:09:42;13.70;;;7.85;;
72275;SDS011;61204;49.980;8.358;2024-02-21T07:12:08;15.48;;;6.18;;
72275;SDS011;61204;49.980;8.358;2024-02-21T07:14:36;14.38;;;6.15;;
72275;SDS011;61204;49.980;8.358;2024-02-21T07:17:01;16.77;;;7.22;;
72275;SDS011;61204;49.980;8.358;2024-02-21T07:19:27;13.25;;;6.20;;
72275;SDS011;61204;49.980;8.358;2024-02-21T07:21:53;15.23;;;7.00;;
72275;SDS011;61204;49.980;8.358;2024-02-21T07:24:18;11.32;;;6.38;;
72275;SDS011;61204;49.980;8.358;2024-02-21T07:26:44;10.73;;;6.45;;
72275;SDS011;61204;49.980;8.358;2024-02-21T07:29:10;11.82;;;6.75;;
72275;SDS011;61204;49.980;8.358;2024-02-21T07:31:42;16.65;;;7.68;;
72275;SDS011;61204;49.980;8.358;2024-02-21T07:34:09;11.40;;;5.50;;
72275;SDS011;61204;49.980;8.358;2024-02-21T07:36:38;16.45;;;5.95;;
72275;SDS011;61204;49.980;8.358;2024-02-21T07:39:04;12.98;;;5.93;;
72275;SDS011;61204;49.980;8.358;2024-02-21T07:41:29;12.88;;;6.32;;
72275;SDS011;61204;49.980;8.358;2024-02-21T07:43:56;9.50;;;4.72;;
72275;SDS011;61204;49.980;8.358;2024-02-21T07:46:22;14.88;;;6.60;;
72275;SDS011;61204;49.980;8.358;2024-02-21T07:48:48;17.35;;;6.07;;
72275;SDS011;61204;49.980;8.358;2024-02-21T07:51:14;14.80;;;4.95;;
72275;SDS011;61204;49.980;8.358;2024-02-21T07:53:43;11.82;;;5.88;;
72275;SDS011;61204;49.980;8.358;2024-02-21T07:56:12;16.20;;;5.82;;
72275;SDS011;61204;49.980;8.358;2024-02-21T07:58:40;10.60;;;4.88;;
72275;SDS011;61204;49.980;8.358;2024-02-21T08:01:06;7.72;;;4.32;;
72275;SDS011;61204;49.980;8.358;2024-02-21T08:03:34;16.08;;;4.97;;
72275;SDS011;61204;49.980;8.358;2024-02-21T08:05:59;13.30;;;5.38;;
72275;SDS011;61204;49.980;8.358;2024-02-21T08:08:26;9.90;;;5.18;;
72275;SDS011;61204;49.980;8.358;2024-02-21T08:10:53;13.98;;;5.32;;
72275;SDS011;61204;49.980;8.358;2024-02-21T08:13:19;11.30;;;4.13;;
72275;SDS011;61204;49.980;8.358;2024-02-21T08:15:44;10.88;;;4.35;;
72275;SDS011;61204;49.980;8.358;2024-02-21T08:18:12;8.95;;;3.55;;
72275;SDS011;61204;49.980;8.358;2024-02-21T08:20:38;8.25;;;3.33;;
72275;SDS011;61204;49.980;8.358;2024-02-21T08:23:03;9.07;;;3.65;;
72275;SDS011;61204;49.980;8.358;2024-02-21T08:25:29;9.25;;;3.63;;
72275;SDS011;61204;49.980;8.358;2024-02-21T08:27:58;10.30;;;4.10;;
72275;SDS011;61204;49.980;8.358;2024-02-21T08:30:24;11.57;;;3.50;;
72275;SDS011;61204;49.980;8.358;2024-02-21T08:32:50;12.45;;;3.28;;
72275;SDS011;61204;49.980;8.358;2024-02-21T08:35:16;8.43;;;3.17;;
72275;SDS011;61204;49.980;8.358;2024-02-21T08:37:47;7.35;;;2.90;;
72275;SDS011;61204;49.980;8.358;2024-02-21T08:40:13;7.38;;;2.95;;
72275;SDS011;61204;49.980;8.358;2024-02-21T08:42:42;6.78;;;2.50;;
72275;SDS011;61204;49.980;8.358;2024-02-21T08:45:10;9.88;;;3.28;;
72275;SDS011;61204;49.980;8.358;2024-02-21T08:47:36;6.50;;;3.30;;
72275;SDS011;61204;49.980;8.358;2024-02-21T08:50:05;7.25;;;3.20;;
72275;SDS011;61204;49.980;8.358;2024-02-21T08:52:35;9.18;;;3.45;;
72275;SDS011;61204;49.980;8.358;2024-02-21T08:55:01;7.72;;;2.67;;
72275;SDS011;61204;49.980;8.358;2024-02-21T08:57:27;9.30;;;2.50;;
72275;SDS011;61204;49.980;8.358;2024-02-21T08:59:53;8.13;;;2.70;;
72275;SDS011;61204;49.980;8.358;2024-02-21T09:02:18;8.05;;;3.30;;
72275;SDS011;61204;49.980;8.358;2024-02-21T09:04:44;8.10;;;2.83;;
72275;SDS011;61204;49.980;8.358;2024-02-21T09:07:10;10.80;;;3.40;;
72275;SDS011;61204;49.980;8.358;2024-02-21T09:09:36;7.57;;;2.90;;
72275;SDS011;61204;49.980;8.358;2024-02-21T09:12:06;7.20;;;2.97;;
72275;SDS011;61204;49.980;8.358;2024-02-21T09:14:33;9.10;;;2.60;;
72275;SDS011;61204;49.980;8.358;2024-02-21T09:17:06;6.13;;;3.05;;
72275;SDS011;61204;49.980;8.358;2024-02-21T09:19:31;7.43;;;2.60;;
72275;SDS011;61204;49.980;8.358;2024-02-21T09:22:01;6.88;;;2.47;;
72275;SDS011;61204;49.980;8.358;2024-02-21T09:24:28;11.80;;;3.90;;
72275;SDS011;61204;49.980;8.358;2024-02-21T09:26:56;6.93;;;2.80;;
72275;SDS011;61204;49.980;8.358;2024-02-21T09:29:24;8.50;;;2.78;;
72275;SDS011;61204;49.980;8.358;2024-02-21T09:31:50;6.90;;;3.03;;
72275;SDS011;61204;49.980;8.358;2024-02-21T09:34:15;8.07;;;2.70;;
72275;SDS011;61204;49.980;8.358;2024-02-21T09:36:41;9.73;;;3.70;;
72275;SDS011;61204;49.980;8.358;2024-02-21T09:39:07;10.55;;;3.00;;
72275;SDS011;61204;49.980;8.358;2024-02-21T09:41:34;7.50;;;2.50;;
72275;SDS011;61204;49.980;8.358;2024-02-21T09:44:10;8.63;;;2.90;;
72275;SDS011;61204;49.980;8.358;2024-02-21T09:49:21;10.55;;;3.10;;
72275;SDS011;61204;49.980;8.358;2024-02-21T09:52:03;7.28;;;2.80;;
72275;SDS011;61204;49.980;8.358;2024-02-21T09:54:32;6.50;;;2.58;;
72275;SDS011;61204;49.980;8.358;2024-02-21T09:56:59;7.68;;;2.50;;
72275;SDS011;61204;49.980;8.358;2024-02-21T09:59:27;11.48;;;3.50;;
72275;SDS011;61204;49.980;8.358;2024-02-21T10:01:58;4.72;;;2.25;;
72275;SDS011;61204;49.980;8.358;2024-02-21T10:04:27;7.72;;;2.80;;
72275;SDS011;61204;49.980;8.358;2024-02-21T10:06:56;9.73;;;3.47;;
72275;SDS011;61204;49.980;8.358;2024-02-21T10:12:07;9.68;;;2.50;;
72275;SDS011;61204;49.980;8.358;2024-02-21T10:14:37;5.10;;;2.22;;
72275;SDS011;61204;49.980;8.358;2024-02-21T10:17:03;10.18;;;2.90;;
72275;SDS011;61204;49.980;8.358;2024-02-21T10:19:34;7.85;;;2.92;;
72275;SDS011;61204;49.980;8.358;2024-02-21T10:22:09;7.05;;;3.10;;
72275;SDS011;61204;49.980;8.358;2024-02-21T10:24:35;5.18;;;2.05;;
72275;SDS011;61204;49.980;8.358;2024-02-21T10:27:07;8.25;;;2.70;;
72275;SDS011;61204;49.980;8.358;2024-02-21T10:29:38;9.73;;;2.33;;
72275;SDS011;61204;49.980;8.358;2024-02-21T10:32:09;12.45;;;3.38;;
72275;SDS011;61204;49.980;8.358;2024-02-21T10:34:37;4.82;;;2.60;;
72275;SDS011;61204;49.980;8.358;2024-02-21T10:37:07;7.60;;;2.47;;
72275;SDS011;61204;49.980;8.358;2024-02-21T10:39:37;8.27;;;2.65;;
72275;SDS011;61204;49.980;8.358;2024-02-21T10:42:12;5.88;;;2.10;;
72275;SDS011;61204;49.980;8.358;2024-02-21T10:44:46;5.95;;;2.20;;
72275;SDS011;61204;49.980;8.358;2024-02-21T10:47:21;7.18;;;2.50;;
72275;SDS011;61204;49.980;8.358;2024-02-21T10:49:55;9.38;;;3.00;;
72275;SDS011;61204;49.980;8.358;2024-02-21T10:52:32;9.52;;;2.92;;
72275;SDS011;61204;49.980;8.358;2024-02-21T10:55:29;7.93;;;2.10;;
72275;SDS011;61204;49.980;8.358;2024-02-21T10:58:06;10.18;;;2.25;;
72275;SDS011;61204;49.980;8.358;2024-02-21T11:00:36;6.53;;;1.80;;
72275;SDS011;61204;49.980;8.358;2024-02-21T11:03:05;6.07;;;2.30;;
72275;SDS011;61204;49.980;8.358;2024-02-21T11:05:31;6.28;;;2.47;;
72275;SDS011;61204;49.980;8.358;2024-02-21T11:07:59;5.30;;;2.10;;
72275;SDS011;61204;49.980;8.358;2024-02-21T11:10:25;4.97;;;1.77;;
72275;SDS011;61204;49.980;8.358;2024-02-21T11:12:52;8.18;;;2.22;;
72275;SDS011;61204;49.980;8.358;2024-02-21T11:15:39;8.55;;;2.45;;
72275;SDS011;61204;49.980;8.358;2024-02-21T11:18:05;6.50;;;2.55;;
72275;SDS011;61204;49.980;8.358;2024-02-21T11:20:37;7.95;;;2.20;;
72275;SDS011;61204;49.980;8.358;2024-02-21T11:23:03;7.78;;;2.42;;
72275;SDS011;61204;49.980;8.358;2024-02-21T11:25:29;10.35;;;2.80;;
72275;SDS011;61204;49.980;8.358;2024-02-21T11:28:02;9.75;;;2.47;;
72275;SDS011;61204;49.980;8.358;2024-02-21T11:30:30;5.20;;;2.40;;
72275;SDS011;61204;49.980;8.358;2024-02-21T11:33:05;5.47;;;2.55;;
72275;SDS011;61204;49.980;8.358;2024-02-21T11:35:33;9.67;;;2.47;;
72275;SDS011;61204;49.980;8.358;2024-02-21T11:40:39;6.82;;;2.08;;
72275;SDS011;61204;49.980;8.358;2024-02-21T11:43:09;6.22;;;2.13;;
72275;SDS011;61204;49.980;8.358;2024-02-21T11:45:35;5.32;;;1.85;;
72275;SDS011;61204;49.980;8.358;2024-02-21T11:48:05;6.43;;;2.63;;
72275;SDS011;61204;49.980;8.358;2024-02-21T11:50:32;7.72;;;2.40;;
72275;SDS011;61204;49.980;8.358;2024-02-21T11:53:01;7.40;;;2.47;;
72275;SDS011;61204;49.980;8.358;2024-02-21T11:55:26;6.97;;;2.50;;
72275;SDS011;61204;49.980;8.358;2024-02-21T11:57:55;7.22;;;2.53;;
72275;SDS011;61204;49.980;8.358;2024-02-21T12:00:21;7.82;;;2.70;;
72275;SDS011;61204;49.980;8.358;2024-02-21T12:02:49;10.23;;;2.53;;
72275;SDS011;61204;49.980;8.358;2024-02-21T12:05:16;8.02;;;2.03;;
72275;SDS011;61204;49.980;8.358;2024-02-21T12:07:43;4.47;;;1.92;;
72275;SDS011;61204;49.980;8.358;2024-02-21T12:10:10;7.50;;;2.40;;
72275;SDS011;61204;49.980;8.358;2024-02-21T12:12:37;5.15;;;1.60;;
72275;SDS011;61204;49.980;8.358;2024-02-21T12:15:04;6.05;;;2.13;;
72275;SDS011;61204;49.980;8.358;2024-02-21T12:17:36;4.57;;;2.17;;
72275;SDS011;61204;49.980;8.358;2024-02-21T12:20:03;9.15;;;2.45;;
72275;SDS011;61204;49.980;8.358;2024-02-21T12:22:36;5.25;;;2.10;;
72275;SDS011;61204;49.980;8.358;2024-02-21T12:25:19;6.15;;;2.33;;
72275;SDS011;61204;49.980;8.358;2024-02-21T12:27:51;9.25;;;2.30;;
72275;SDS011;61204;49.980;8.358;2024-02-21T12:30:17;6.10;;;2.63;;
72275;SDS011;61204;49.980;8.358;2024-02-21T12:32:45;8.10;;;2.40;;
72275;SDS011;61204;49.980;8.358;2024-02-21T12:35:11;4.78;;;2.08;;
72275;SDS011;61204;49.980;8.358;2024-02-21T12:37:37;7.20;;;2.15;;
72275;SDS011;61204;49.980;8.358;2024-02-21T12:40:03;8.35;;;2.20;;
72275;SDS011;61204;49.980;8.358;2024-02-21T12:42:35;6.22;;;2.67;;
72275;SDS011;61204;49.980;8.358;2024-02-21T12:45:04;9.07;;;2.78;;
72275;SDS011;61204;49.980;8.358;2024-02-21T12:47:30;7.60;;;2.50;;
72275;SDS011;61204;49.980;8.358;2024-02-21T12:49:56;9.55;;;2.38;;
72275;SDS011;61204;49.980;8.358;2024-02-21T12:52:22;6.63;;;1.90;;
72275;SDS011;61204;49.980;8.358;2024-02-21T12:54:47;5.93;;;1.88;;
72275;SDS011;61204;49.980;8.358;2024-02-21T12:57:16;6.60;;;2.03;;
72275;SDS011;61204;49.980;8.358;2024-02-21T12:59:42;5.68;;;2.28;;
72275;SDS011;61204;49.980;8.358;2024-02-21T13:02:10;6.63;;;2.55;;
72275;SDS011;61204;49.980;8.358;2024-02-21T13:04:38;7.45;;;2.53;;
72275;SDS011;61204;49.980;8.358;2024-02-21T13:07:06;6.22;;;2.20;;
72275;SDS011;61204;49.980;8.358;2024-02-21T13:09:34;6.82;;;2.17;;
72275;SDS011;61204;49.980;8.358;2024-02-21T13:12:02;5.97;;;2.00;;
72275;SDS011;61204;49.980;8.358;2024-02-21T13:14:28;6.88;;;2.13;;
72275;SDS011;61204;49.980;8.358;2024-02-21T13:16:54;6.88;;;2.40;;
72275;SDS011;61204;49.980;8.358;2024-02-21T13:19:19;11.60;;;2.78;;
72275;SDS011;61204;49.980;8.358;2024-02-21T13:21:45;6.00;;;1.83;;
72275;SDS011;61204;49.980;8.358;2024-02-21T13:24:11;6.85;;;2.20;;
72275;SDS011;61204;49.980;8.358;2024-02-21T13:26:36;7.47;;;1.67;;
72275;SDS011;61204;49.980;8.358;2024-02-21T13:29:04;7.63;;;2.03;;
72275;SDS011;61204;49.980;8.358;2024-02-21T13:31:30;7.13;;;2.30;;
72275;SDS011;61204;49.980;8.358;2024-02-21T13:33:57;8.77;;;2.40;;
72275;SDS011;61204;49.980;8.358;2024-02-21T13:36:23;4.10;;;1.90;;
72275;SDS011;61204;49.980;8.358;2024-02-21T13:38:48;5.82;;;2.00;;
72275;SDS011;61204;49.980;8.358;2024-02-21T13:41:16;8.82;;;2.20;;
72275;SDS011;61204;49.980;8.358;2024-02-21T13:43:42;4.80;;;1.60;;
72275;SDS011;61204;49.980;8.358;2024-02-21T13:46:08;3.03;;;1.60;;
72275;SDS011;61204;49.980;8.358;2024-02-21T13:48:36;6.28;;;2.35;;
72275;SDS011;61204;49.980;8.358;2024-02-21T13:51:02;6.45;;;1.92;;
72275;SDS011;61204;49.980;8.358;2024-02-21T13:53:28;7.55;;;1.70;;
72275;SDS011;61204;49.980;8.358;2024-02-21T13:55:54;5.55;;;1.75;;
72275;SDS011;61204;49.980;8.358;2024-02-21T13:58:19;5.50;;;2.03;;
72275;SDS011;61204;49.980;8.358;2024-02-21T14:00:46;7.35;;;2.08;;
72275;SDS011;61204;49.980;8.358;2024-02-21T14:03:11;5.85;;;1.50;;
72275;SDS011;61204;49.980;8.358;2024-02-21T14:05:37;5.32;;;1.25;;
72275;SDS011;61204;49.980;8.358;2024-02-21T14:08:04;6.75;;;1.75;;
72275;SDS011;61204;49.980;8.358;2024-02-21T14:10:31;6.45;;;2.00;;
72275;SDS011;61204;49.980;8.358;2024-02-21T14:12:57;7.13;;;1.85;;
72275;SDS011;61204;49.980;8.358;2024-02-21T14:15:23;5.70;;;1.70;;
72275;SDS011;61204;49.980;8.358;2024-02-21T14:17:50;6.55;;;1.67;;
72275;SDS011;61204;49.980;8.358;2024-02-21T14:20:20;6.25;;;1.50;;
72275;SDS011;61204;49.980;8.358;2024-02-21T14:22:45;6.20;;;2.05;;
72275;SDS011;61204;49.980;8.358;2024-02-21T14:25:11;4.65;;;1.60;;
72275;SDS011;61204;49.980;8.358;2024-02-21T14:27:37;5.60;;;1.30;;
72275;SDS011;61204;49.980;8.358;2024-02-21T14:30:03;4.38;;;1.85;;
72275;SDS011;61204;49.980;8.358;2024-02-21T14:32:30;6.88;;;2.15;;
72275;SDS011;61204;49.980;8.358;2024-02-21T14:34:58;2.97;;;1.27;;
72275;SDS011;61204;49.980;8.358;2024-02-21T14:37:23;3.42;;;1.35;;
72275;SDS011;61204;49.980;8.358;2024-02-21T14:39:51;9.02;;;1.55;;
72275;SDS011;61204;49.980;8.358;2024-02-21T14:42:17;6.50;;;2.13;;
72275;SDS011;61204;49.980;8.358;2024-02-21T14:44:42;6.75;;;1.70;;
72275;SDS011;61204;49.980;8.358;2024-02-21T14:47:08;7.25;;;1.48;;
72275;SDS011;61204;49.980;8.358;2024-02-21T14:49:34;5.97;;;1.55;;
72275;SDS011;61204;49.980;8.358;2024-02-21T14:52:00;7.28;;;1.75;;